createdAt,value
2023-04-29T00:01:33.788Z,101335.03
2023-04-29T00:06:33.441Z,101356.34
2023-04-29T00:11:33.100Z,101338.94
2023-04-29T00:16:35.356Z,101363.34
2023-04-29T00:21:34.850Z,101360.75
2023-04-29T00:26:37.377Z,101355.94
2023-04-29T00:31:37.767Z,101340.44
2023-04-29T00:36:37.669Z,101298.91
2023-04-29T00:41:35.121Z,101363.34
2023-04-29T00:46:36.843Z,101353.56
2023-04-29T00:51:44.413Z,101322.69
2023-04-29T00:56:50.592Z,101328.28
2023-04-29T01:01:54.229Z,101321.72
2023-04-29T01:07:14.672Z,101290.97
2023-04-29T01:12:42.311Z,101314.38
2023-04-29T01:18:09.062Z,101301.47
2023-04-29T01:23:14.234Z,101333.59
2023-04-29T01:28:13.793Z,101344.22
2023-04-29T01:34:03.978Z,101312.19
2023-04-29T01:39:14.384Z,101283.03
2023-04-29T01:44:21.506Z,101289.28
2023-04-29T01:49:32.580Z,101282.31
2023-04-29T01:54:42.839Z,101296.03
2023-04-29T01:59:47.176Z,101335.78
2023-04-29T02:05:16.361Z,101289.47
2023-04-29T02:10:25.802Z,101287.53
2023-04-29T02:15:33.132Z,101297.31
2023-04-29T02:20:40.454Z,101332.09
2023-04-29T02:25:47.298Z,101342.56
2023-04-29T02:30:51.946Z,101293.03
2023-04-29T02:35:53.955Z,101318.75
2023-04-29T02:40:52.326Z,101275.81
2023-04-29T02:45:57.402Z,101304.00
2023-04-29T02:50:56.976Z,101268.56
2023-04-29T02:55:55.942Z,101276.00
2023-04-29T03:00:59.231Z,101272.69
2023-04-29T03:05:58.277Z,101265.13
2023-04-29T03:11:00.496Z,101269.56
2023-04-29T03:16:02.856Z,101262.72
2023-04-29T03:21:00.356Z,101250.41
2023-04-29T03:25:59.345Z,101298.22
2023-04-29T03:30:59.351Z,101298.19
2023-04-29T03:35:58.162Z,101326.22
2023-04-29T03:41:13.472Z,101323.34
2023-04-29T03:46:12.360Z,101300.41
2023-04-29T03:51:13.632Z,101300.94
2023-04-29T03:56:17.492Z,101324.63
2023-04-29T04:01:17.443Z,101325.63
2023-04-29T04:06:17.940Z,101355.28
2023-04-29T04:11:18.120Z,101304.97
2023-04-29T04:16:20.673Z,101323.88
2023-04-29T04:21:19.396Z,101352.50
2023-04-29T04:26:26.183Z,101320.19
2023-04-29T04:31:46.279Z,101347.69
2023-04-29T04:36:48.168Z,101321.25
2023-04-29T04:41:47.431Z,101298.13
2023-04-29T04:46:51.139Z,101339.03
2023-04-29T04:52:03.416Z,101336.75
2023-04-29T04:57:06.344Z,101329.31
2023-04-29T05:02:05.917Z,101331.88
2023-04-29T05:07:03.832Z,101354.28
2023-04-29T05:12:17.887Z,101352.66
2023-04-29T05:17:18.543Z,101338.91
2023-04-29T05:22:19.254Z,101338.00
2023-04-29T05:27:24.412Z,101353.25
2023-04-29T05:45:22.627Z,101329.00
2023-04-29T05:50:37.712Z,101348.00
2023-04-29T05:55:39.490Z,101339.19
2023-04-29T06:01:12.203Z,101310.31
2023-04-29T06:06:12.249Z,101342.50
2023-04-29T06:11:17.896Z,101343.38
2023-04-29T06:16:18.415Z,101310.13
2023-04-29T06:21:30.000Z,101313.78
2023-04-29T06:26:38.088Z,101312.84
2023-04-29T06:31:55.302Z,101296.34
2023-04-29T06:37:08.762Z,101315.16
2023-04-29T06:42:41.325Z,101316.00
2023-04-29T06:48:18.260Z,101288.16
2023-04-29T06:53:19.934Z,101281.41
2023-04-29T07:04:06.398Z,101302.47
2023-04-29T07:09:05.071Z,101301.88
2023-04-29T07:14:19.178Z,101316.66
2023-04-29T07:19:23.492Z,101278.47
2023-04-29T07:24:35.515Z,101258.50
2023-04-29T07:29:37.701Z,101275.53
2023-04-29T07:34:48.711Z,101279.94
2023-04-29T07:40:00.101Z,101267.69
2023-04-29T07:45:00.184Z,101281.28
2023-04-29T07:49:58.907Z,101259.84
2023-04-29T07:55:08.859Z,101276.69
2023-04-29T08:00:13.603Z,101269.09
2023-04-29T08:05:22.935Z,101262.19
2023-04-29T08:10:33.299Z,101250.44
2023-04-29T08:15:49.634Z,101256.94
2023-04-29T08:21:13.195Z,101264.47
2023-04-29T08:26:15.696Z,101244.25
2023-04-29T08:31:30.852Z,101233.88
2023-04-29T08:36:33.977Z,101253.16
2023-04-29T08:41:42.089Z,101216.06
2023-04-29T08:46:45.915Z,101240.53
2023-04-29T08:51:58.434Z,101228.44
2023-04-29T08:57:04.332Z,101202.63
2023-04-29T09:02:07.498Z,101229.56
2023-04-29T09:07:19.318Z,101217.75
2023-04-29T09:12:26.486Z,101216.06
2023-04-29T09:17:45.012Z,101249.06
2023-04-29T09:23:01.271Z,101238.63
2023-04-29T09:28:19.932Z,101215.34
2023-04-29T09:33:37.066Z,101179.88
2023-04-29T09:38:44.109Z,101166.44
2023-04-29T09:44:10.015Z,101194.75
2023-04-29T09:49:25.073Z,101163.31
2023-04-29T09:54:29.324Z,101189.91
2023-04-29T09:59:45.770Z,101161.66
2023-04-29T10:04:55.544Z,101200.22
2023-04-29T10:10:00.974Z,101197.94
2023-04-29T10:15:06.265Z,101202.09
2023-04-29T10:20:20.251Z,101149.31
2023-04-29T10:25:26.874Z,101152.22
2023-04-29T10:30:38.820Z,101155.06
2023-04-29T10:35:51.048Z,101147.91
2023-04-29T10:40:51.343Z,101166.94
2023-04-29T10:46:19.949Z,101123.94
2023-04-29T10:51:33.329Z,101137.03
2023-04-29T10:56:55.977Z,101159.44
2023-04-29T11:02:04.451Z,101122.94
2023-04-29T11:07:10.763Z,101149.63
2023-04-29T11:12:22.735Z,101138.56
2023-04-29T11:17:52.572Z,101145.78
2023-04-29T11:23:00.051Z,101103.72
2023-04-29T11:28:11.047Z,101089.84
2023-04-29T11:33:17.415Z,101108.75
2023-04-29T11:38:24.774Z,101120.38
2023-04-29T11:49:15.436Z,101120.56
2023-04-29T11:54:19.075Z,101090.66
2023-04-29T11:59:27.161Z,101083.41
2023-04-29T12:04:35.683Z,101070.03
2023-04-29T12:09:45.859Z,101070.06
2023-04-29T12:14:59.669Z,101077.75
2023-04-29T12:20:13.376Z,101109.94
2023-04-29T12:25:20.323Z,101055.78
2023-04-29T12:35:47.214Z,101053.03
2023-04-29T12:40:56.378Z,101066.13
2023-04-29T12:46:19.360Z,101032.59
2023-04-29T12:51:45.229Z,101028.06
2023-04-29T12:57:10.765Z,101045.94
2023-04-29T13:08:03.196Z,101008.34
2023-04-29T13:13:16.552Z,100992.78
2023-04-29T13:18:58.994Z,101018.38
2023-04-29T13:24:25.631Z,100994.88
2023-04-29T13:29:33.624Z,101023.97
2023-04-29T13:34:42.810Z,101025.78
2023-04-29T13:39:56.413Z,101005.56
2023-04-29T13:51:09.630Z,100993.09
2023-04-29T13:56:55.075Z,101018.81
2023-04-29T14:06:35.880Z,101012.09
2023-04-29T14:12:08.640Z,100962.19
2023-04-29T14:17:28.814Z,100952.28
2023-04-29T14:22:34.276Z,100964.13
2023-04-29T14:27:40.015Z,100950.69
2023-04-29T14:32:51.460Z,100951.50
2023-04-29T14:37:52.942Z,100941.66
2023-04-29T14:43:12.080Z,100944.06
2023-04-29T14:48:33.618Z,100936.75
2023-04-29T14:53:41.481Z,100946.94
2023-04-29T14:58:47.055Z,100927.50
2023-04-29T15:03:55.137Z,100955.47
2023-04-29T15:09:12.943Z,100945.31
2023-04-29T15:14:17.095Z,100918.00
2023-04-29T15:25:28.201Z,100925.81
2023-04-29T15:30:48.095Z,100939.22
2023-04-29T15:35:51.551Z,100896.72
2023-04-29T15:41:19.910Z,100954.38
2023-04-29T15:46:24.413Z,100950.94
2023-04-29T15:51:27.713Z,100948.97
2023-04-29T15:56:39.274Z,100891.81
2023-04-29T16:01:45.151Z,100892.06
2023-04-29T16:06:49.934Z,100913.34
2023-04-29T16:11:50.712Z,100903.63
2023-04-29T16:16:49.844Z,100911.56
2023-04-29T16:21:57.449Z,100922.28
2023-04-29T16:27:01.769Z,100901.97
2023-04-29T16:32:08.866Z,100929.81
2023-04-29T16:37:12.842Z,100891.81
2023-04-29T16:42:26.108Z,100891.03
2023-04-29T16:47:30.913Z,100896.09
2023-04-29T16:52:34.754Z,100916.41
2023-04-29T16:57:34.039Z,100896.53
2023-04-29T17:02:36.719Z,100948.63
2023-04-29T17:07:38.555Z,100918.81
2023-04-29T17:12:51.024Z,100899.38
2023-04-29T17:17:54.645Z,100904.44
2023-04-29T17:22:53.295Z,100933.25
2023-04-29T17:28:01.422Z,100920.28
2023-04-29T17:33:14.352Z,100911.72
2023-04-29T17:38:15.771Z,100927.13
2023-04-29T17:43:32.820Z,100940.06
2023-04-29T17:48:48.534Z,100931.13
2023-04-29T17:53:58.877Z,100921.69
2023-04-29T17:59:37.818Z,100961.50
2023-04-29T18:04:38.941Z,100933.78
2023-04-29T18:09:41.329Z,100925.50
2023-04-29T18:14:51.081Z,100926.97
2023-04-29T18:20:05.141Z,100939.41
2023-04-29T18:25:09.311Z,100926.03
2023-04-29T18:30:16.021Z,100946.03
2023-04-29T18:35:25.376Z,100960.84
2023-04-29T18:40:28.894Z,100951.66
2023-04-29T18:45:32.151Z,100959.00
2023-04-29T18:50:44.568Z,100932.47
2023-04-29T18:56:04.965Z,100936.53
2023-04-29T19:01:20.673Z,100943.50
2023-04-29T19:06:27.225Z,100946.88
2023-04-29T19:11:34.473Z,100984.63
2023-04-29T19:16:38.882Z,100945.66
2023-04-29T19:22:06.172Z,100937.91
2023-04-29T19:27:14.078Z,100929.69
2023-04-29T19:32:14.502Z,100944.06
2023-04-29T19:37:47.100Z,100924.00
2023-04-29T19:43:04.068Z,100952.28
2023-04-29T19:48:28.337Z,100975.28
2023-04-29T19:54:01.167Z,100932.16
2023-04-29T19:59:01.791Z,100936.72
2023-04-29T20:04:16.604Z,100981.88
2023-04-29T20:09:26.854Z,100938.63
2023-04-29T20:15:12.951Z,100965.13
2023-04-29T20:20:21.759Z,100929.19
2023-04-29T20:25:22.940Z,100929.47
2023-04-29T20:30:24.151Z,100907.31
2023-04-29T20:35:55.410Z,100966.00
2023-04-29T20:41:16.805Z,100939.22
2023-04-29T20:46:26.042Z,100906.69
2023-04-29T20:51:28.990Z,100910.00
2023-04-29T20:56:27.904Z,100913.47
2023-04-29T21:01:42.605Z,100929.50
2023-04-29T21:06:42.792Z,100917.31
2023-04-29T21:11:45.372Z,100902.88
2023-04-29T21:16:47.559Z,100943.66
2023-04-29T21:21:55.672Z,100921.38
2023-04-29T21:26:57.649Z,100934.22
2023-04-29T21:31:58.814Z,100905.66
2023-04-29T21:36:59.434Z,100908.72
2023-04-29T21:41:57.130Z,100936.66
2023-04-29T21:47:01.865Z,100924.94
2023-04-29T21:52:03.297Z,100933.94
2023-04-29T21:57:07.276Z,100912.34
2023-04-29T22:02:23.320Z,100890.66
2023-04-29T22:07:26.385Z,100914.22
2023-04-29T22:12:27.670Z,100894.22
2023-04-29T22:17:26.338Z,100862.84
2023-04-29T22:22:26.715Z,100893.59
2023-04-29T22:27:37.800Z,100909.09
2023-04-29T22:38:10.072Z,100870.53
2023-04-29T22:43:14.412Z,100851.63
2023-04-29T22:48:14.457Z,100854.88
2023-04-29T22:53:18.703Z,100876.78
2023-04-29T22:58:25.851Z,100862.38
2023-04-29T23:03:29.492Z,100856.97
2023-04-29T23:08:38.844Z,100871.34
2023-04-29T23:13:43.552Z,100848.34
2023-04-29T23:18:45.162Z,100820.94
2023-04-29T23:23:47.254Z,100820.94
2023-04-29T23:28:50.003Z,100846.72
2023-04-29T23:33:54.155Z,100855.66
2023-04-29T23:38:52.847Z,100834.28
2023-04-29T23:44:01.675Z,100826.94
2023-04-29T23:49:06.058Z,100858.09
2023-04-29T23:54:16.864Z,100835.13
2023-04-29T23:59:16.042Z,100853.13
